Hovedside
METAR-TAF:

METAR-TAF

Lufthavner :

Boscombe Down, England

breddegrad: 51-10N, lengdegrad: 001-45W, høyde over havet: 124 m

Gjeldene værobservasjon

Denne rapporten ble laget for 15 minutter siden, klokken 15:20 UTC
Vind 9 kt fra Sør-sørvest
Temperatur 8°C
Luftfuktighet 81%
Trykk 1017 hPa
Sikt 10 km eller mer
Få skyer i en høyde av 1800 ft
Brutte skyer i en høyde av 10000 ft

METAR: EGDM 051520Z 21009KT 9999 FEW018 BKN100 08/05 Q1017 NOSIG RMK BLU BLU

Tid: 15:35 (15:35 UTC)

Varsel

Denne rapporten ble laget for 2 timer og 7 minutter siden, klokken 13:28 UTC
Varsel gyldig fra 05. klokken 15 UTC til 05. klokken 19 UTC
Vind 5 kt fra Sør-sørvest
Sikt 10 km eller mer
Få skyer i en høyde av 2000 ft
Blir
fra 05. klokken 16 UTC til 05. klokken 18 UTC
Vind 15 kt fra Sørvest med vindkast opp mot 25 kt
Brutte skyer i en høyde av 2000 ft

TAF: EGDM 051328Z 0515/0519 21005KT 9999 FEW020 BECMG 0516/0518 23015G25KT BKN020

Værobservasjoner og værvarsel for over 4000 flyplasser (METAR- og TAF-rapporter).

Tilgjengelige stasjoner er representert av de røde og gule prikkene på kartet.

Hold musepekeren over prikken for å se navnet på stasjonen.

Klikk så for å se værobservasjoner og -varsler.

For å forandre kartet kan du klikke på den grønne knappen med svart kryss for å zoome inn, på den grønne knappen med strek for å zoome ut, eller på de grønne pilene for å se tilstøtende kart.


METAR-TAF: